If you wish to contribute or participate in the discussions about articles you are invited to join SKYbrary as a registered user

 Actions

Les Eplatures Airport

From SKYbrary Wiki

LSGC
Airport
ICAO: LSGC – IATA: ZHV
Summary
Name Les Eplatures Airport
Region Europe
Territory Switzerland CH.gif
Location La Chaux-de-Fonds, Neuchatel
Serving Les Eplatures
Elevation 1,026.566 m
3,368 ft
3,368 ft1,026.566 m
Type medium airport
Coordinates 47° 5' 1.86" N, 6° 47' 34.21" E
Runways
Designator Length Width Surface ROPS
6/24 1130 m3,707.349 ft
27 m88.583 ft
ASP /


METAR
Observation LSGC 161250Z 21010KT CAVOK 14/M05 Q1018 WS R24
Station Les Eplatures
Date/Time 16 February 2020 12:50:00
Wind direction 210°
Wind speed 10 kts
Lowest cloud amount clouds and visibility OK
Temperature 14°C
Dew point
Humidity 26%
QNH 1018 hPa
Weather condition n/a

Maps

Terrain

Loading map...

Airport Layout

Loading map...


Accidents & Serious Incidents at or in vicinity of LSGC

None on SKYbrary